Latest Weather Observations for Coen Airport

IDQ60801

Issued at 5:35 pm EST Friday 31 October 2014 (issued every 30 minutes, with the page automatically refreshed every 10 minutes)

About weather observations | Map of weather stations | Latest weather observations for QLD | Other Formats
Station Details ID: 027073 Name: COEN AIRPORT Lat: -13.76 Lon: 143.12 Height: 159.3 m
Data from the previous 72 hours. | See also: Recent months at Coen Airport
Date/Time
EST
Temp
°C
App
Temp
°C
Dew
Point
Rel
Hum
%
Delta-T
°C
Wind Press
QNH
hPa
Press
MSL
hPa
Rain
since 9 am
mm
Dir
 
Spd
km/h
Gust
km/h
Spd
kts
Gust
kts
31/05:30pm 27.9 26.4 16.2 49 7.3 ENE 19 28 10 15 1010.3 - 0.0
31/05:00pm 28.5 25.7 14.3 41 8.6 NE 22 32 12 17 1009.8 - 0.0
31/04:30pm 30.4 27.7 12.8 34 10.5 E 19 26 10 14 1009.4 - 0.0
31/04:00pm 31.2 28.0 13.0 33 10.9 ENE 22 33 12 18 1009.1 - 0.0
31/03:30pm 31.9 29.4 13.6 32 11.1 E 19 28 10 15 1009.0 - 0.0
31/03:00pm 31.5 28.3 14.2 35 10.6 NE 24 33 13 18 1009.3 1008.3 0.0
31/02:30pm 32.0 28.8 14.2 34 10.9 NNE 24 39 13 21 1009.4 - 0.0
31/02:00pm 31.7 27.6 13.9 34 10.8 NE 28 39 15 21 1009.7 - 0.0
31/01:30pm 31.5 28.6 15.0 36 10.2 NE 24 35 13 19 1010.1 - 0.0
31/01:00pm 32.4 30.4 15.4 36 10.6 NE 20 33 11 18 1010.6 - 0.0
31/12:30pm 32.2 30.1 15.2 35 10.6 NE 20 35 11 19 1011.1 - 0.0
31/12:00pm 31.2 29.7 15.2 38 9.9 E 17 26 9 14 1011.7 1010.7 0.0
31/11:30am 31.7 29.8 15.2 36 10.2 ENE 19 33 10 18 1012.1 - 0.0
31/11:00am 31.0 29.6 16.6 42 9.1 ENE 19 32 10 17 1012.6 - 0.0
31/10:30am 30.3 28.5 15.6 41 9.1 ENE 19 28 10 15 1013.0 - 0.0
31/10:00am 29.5 27.8 16.3 45 8.3 NE 20 28 11 15 1013.2 - 0.0
31/09:30am 28.8 27.2 16.4 47 7.8 E 20 32 11 17 1013.5 - 0.0
31/09:00am 28.3 26.6 16.2 47 7.5 ENE 20 32 11 17 1013.5 1012.6 0.0
31/08:30am 27.4 25.9 15.4 48 7.4 E 17 28 9 15 1013.4 - 0.0
31/08:00am 26.1 25.3 17.2 58 5.6 NE 17 28 9 15 1013.2 - 0.0
31/07:30am 25.0 26.3 18.4 66 4.2 E 9 15 5 8 1013.0 - 0.0
31/07:00am 21.5 24.9 19.4 88 1.3 CALM 0 0 0 0 1012.9 - 0.0
31/06:30am 19.0 21.6 17.5 91 0.9 CALM 0 0 0 0 1012.5 - 0.0
31/06:00am 18.2 20.3 16.2 88 1.2 S 0 9 0 5 1012.3 1011.5 0.0
31/05:30am 18.9 21.3 16.9 88 1.2 CALM 0 4 0 2 1012.0 - 0.0
31/05:00am 18.9 21.3 16.9 88 1.2 CALM 0 0 0 0 1011.7 - 0.0
31/04:30am 18.8 20.7 16.8 88 1.2 SW 2 7 1 4 1011.4 - 0.0
31/04:00am 19.3 21.7 16.9 86 1.5 CALM 0 0 0 0 1011.2 - 0.0
31/03:30am 19.9 22.3 17.1 84 1.7 CALM 0 0 0 0 1011.2 - 0.0
31/03:00am 20.8 23.1 17.8 83 1.9 NNE 2 7 1 4 1011.1 1010.3 0.0
31/02:30am 21.6 23.3 18.0 80 2.3 ENE 6 13 3 7 1011.3 - 0.0
31/02:00am 21.6 23.1 18.0 80 2.3 NNE 7 13 4 7 1011.7 - 0.0
31/01:30am 22.1 23.2 17.9 77 2.6 ENE 9 19 5 10 1011.9 - 0.0
31/01:00am 22.1 23.2 18.1 78 2.5 NNE 9 15 5 8 1012.0 - 0.0
31/12:30am 21.7 23.6 17.7 78 2.5 NE 4 7 2 4 1012.2 - 0.0
31/12:00am 21.9 23.4 18.1 79 2.4 NE 7 11 4 6 1012.6 1011.7 0.0
 
Date/Time
EST
Temp
°C
App
Temp
°C
Dew
Point
Rel
Hum
%
Delta-T
°C
Wind Press
QNH
hPa
Press
MSL
hPa
Rain
since 9 am
mm
Dir
 
Spd
km/h
Gust
km/h
Spd
kts
Gust
kts
30/11:30pm 21.9 23.0 17.9 78 2.5 NNE 9 15 5 8 1012.9 - 0.0
30/11:00pm 22.0 23.0 17.8 77 2.6 NE 9 15 5 8 1012.9 - 0.0
30/10:30pm 22.3 23.0 17.9 76 2.8 NE 11 15 6 8 1012.9 - 0.0
30/10:00pm 22.6 23.3 17.9 75 2.9 NE 11 17 6 9 1012.9 - 0.0
30/09:30pm 22.5 23.3 18.1 76 2.8 NE 11 19 6 10 1012.7 - 0.0
30/09:00pm 22.8 23.1 17.9 74 3.1 NE 13 19 7 10 1012.5 1011.7 0.0
30/08:30pm 23.0 23.7 17.9 73 3.2 NE 11 17 6 9 1012.2 - 0.0
30/08:00pm 23.3 24.4 18.0 72 3.3 NE 9 15 5 8 1011.8 - 0.0
30/07:30pm 23.6 24.2 17.8 70 3.6 ENE 11 20 6 11 1011.6 - 0.0
30/07:00pm 24.2 23.9 17.4 65 4.3 NE 15 24 8 13 1011.3 - 0.0
30/06:30pm 25.1 24.1 16.5 59 5.3 NE 17 30 9 16 1010.8 - 0.0
30/06:00pm 26.5 25.0 16.4 53 6.3 NE 19 28 10 15 1010.4 1009.5 0.0
30/05:30pm 28.7 27.6 16.3 47 7.7 ENE 17 28 9 15 1009.8 - 0.0
30/05:00pm 30.2 28.8 15.5 41 9.1 ENE 17 26 9 14 1009.6 - 0.0
30/04:30pm 31.1 28.7 13.8 34 10.5 ENE 19 30 10 16 1009.6 - 0.0
30/04:00pm 31.2 27.2 10.5 28 11.9 E 22 32 12 17 1009.7 - 0.0
30/03:30pm 32.4 28.9 11.0 27 12.5 ENE 20 35 11 19 1009.6 - 0.0
30/03:00pm 33.7 30.6 10.3 24 13.6 E 17 32 9 17 1009.6 1008.6 0.0
30/02:30pm 33.7 30.6 12.1 27 12.9 NE 20 30 11 16 1009.7 - 0.0
30/02:00pm 33.9 31.0 12.8 28 12.7 NE 20 30 11 16 1010.0 - 0.0
30/01:30pm 34.2 31.7 13.6 29 12.6 E 19 26 10 14 1010.2 - 0.0
30/01:00pm 32.9 30.2 14.5 33 11.4 NE 22 32 12 17 1010.7 - 0.0
30/12:30pm 32.1 28.9 14.3 34 10.9 E 24 32 13 17 1011.2 - 0.0
30/12:00pm 31.8 29.9 15.3 37 10.3 NE 19 32 10 17 1011.8 1010.8 0.0
30/11:30am 31.1 29.8 14.7 37 10.1 ENE 15 26 8 14 1012.2 - 0.0
30/11:00am 31.5 29.9 15.0 36 10.2 NNE 17 28 9 15 1012.6 - 0.0
30/10:30am 31.5 30.8 17.4 43 9.0 NE 17 24 9 13 1013.0 - 0.0
30/10:00am 29.2 28.0 16.0 44 8.2 NE 17 28 9 15 1013.4 - 0.0
30/09:30am 28.6 27.4 16.2 47 7.7 ENE 17 24 9 13 1013.7 - 0.0
30/09:00am 27.6 26.7 15.9 49 7.2 NE 15 20 8 11 1013.8 1012.9 0.0
30/08:30am 25.6 25.9 17.0 59 5.4 ENE 11 20 6 11 1013.8 - 0.0
30/08:00am 23.9 25.6 17.2 66 4.2 SE 4 9 2 5 1013.8 - 0.0
30/07:30am 22.5 23.0 17.4 73 3.2 S 11 13 6 7 1013.7 - 0.0
30/07:00am 19.7 21.0 17.1 85 1.6 SE 6 7 3 4 1013.4 - 0.0
30/06:30am 17.9 18.9 16.4 91 0.9 S 6 7 3 4 1013.3 - 0.0
30/06:00am 17.0 18.7 15.3 90 1.0 S 0 7 0 4 1013.0 1012.0 0.0
30/05:30am 17.1 17.6 15.6 91 0.9 SSE 7 9 4 5 1012.6 - 0.0
30/05:00am 16.9 17.3 15.2 90 1.0 SSE 7 9 4 5 1012.3 - 0.0
30/04:30am 16.5 17.3 14.9 90 0.9 ESE 4 7 2 4 1012.1 - 0.0
30/04:00am 16.8 18.0 15.0 89 1.0 S 2 9 1 5 1012.0 - 0.0
30/03:30am 17.5 18.3 15.8 90 1.0 SSE 6 7 3 4 1011.9 - 0.0
30/03:00am 17.4 17.6 15.7 90 1.0 SE 9 9 5 5 1012.0 1011.1 0.0
30/02:30am 17.6 18.4 15.9 90 1.0 S 6 7 3 4 1012.4 - 0.0
30/02:00am 17.6 18.4 15.8 89 1.1 SSE 6 9 3 5 1012.7 - 0.0
30/01:30am 18.3 19.4 16.5 89 1.1 SSW 6 11 3 6 1012.8 - 0.0
30/01:00am 18.3 19.8 15.6 84 1.6 SE 2 7 1 4 1013.1 - 0.0
30/12:30am 19.6 21.4 16.4 82 1.9 ESE 2 7 1 4 1013.0 - 0.0
30/12:00am 20.8 22.0 17.4 81 2.1 NNE 7 13 4 7 1012.9 1012.0 0.0
 
Date/Time
EST
Temp
°C
App
Temp
°C
Dew
Point
Rel
Hum
%
Delta-T
°C
Wind Press
QNH
hPa
Press
MSL
hPa
Rain
since 9 am
mm
Dir
 
Spd
km/h
Gust
km/h
Spd
kts
Gust
kts
29/11:30pm 21.2 22.5 17.0 77 2.6 NE 6 11 3 6 1013.1 - 0.0
29/11:00pm 21.9 23.3 17.9 78 2.5 ENE 7 11 4 6 1013.2 - 0.0
29/10:30pm 22.1 22.3 18.5 80 2.3 NNE 15 20 8 11 1013.4 - 0.0
29/10:00pm 22.0 22.5 18.4 80 2.3 NNE 13 19 7 10 1013.4 - 0.0
29/09:30pm 22.3 21.6 18.3 78 2.5 NNE 19 28 10 15 1013.4 - 0.0
29/09:00pm 22.7 22.8 18.3 76 2.8 NNE 15 20 8 11 1013.0 1012.1 0.0
29/08:30pm 23.0 22.2 18.1 74 3.1 NE 19 26 10 14 1012.8 - 0.0
29/08:00pm 23.3 23.3 18.0 72 3.3 NE 15 22 8 12 1012.6 - 0.0
29/07:30pm 24.0 23.4 17.5 67 4.1 NE 17 22 9 12 1012.3 - 0.0
29/07:00pm 25.0 24.7 16.4 59 5.3 NNE 13 17 7 9 1012.1 - 0.0
29/06:30pm 26.2 25.4 15.0 50 6.8 NE 13 22 7 12 1011.7 - 0.0
29/06:00pm 27.8 25.7 13.7 42 8.4 ENE 17 28 9 15 1011.3 1010.4 0.0
29/05:30pm 28.5 26.3 14.3 41 8.6 ENE 19 26 10 14 1011.1 - 0.0
29/05:00pm 30.4 28.8 14.9 39 9.5 NE 17 28 9 15 1010.7 - 0.0
29/04:30pm 30.8 28.7 15.2 38 9.7 NE 20 32 11 17 1010.4 - 0.0
29/04:00pm 31.8 28.9 16.1 38 9.9 NE 26 33 14 18 1010.1 - 0.0
29/03:30pm 32.8 30.2 15.8 36 10.7 NE 24 35 13 19 1010.0 - 0.0
29/03:00pm 33.1 31.0 14.7 33 11.4 NE 19 30 10 16 1010.1 1009.2 0.0
29/02:30pm 33.2 31.2 13.8 31 11.9 ENE 17 24 9 13 1010.2 - 0.0
29/02:00pm 33.2 31.9 13.8 31 11.9 N 13 28 7 15 1010.5 - 0.0
29/01:30pm 33.1 31.8 13.7 31 11.8 ENE 13 24 7 13 1011.0 - 0.0
29/01:00pm 32.0 30.9 13.2 31 11.3 NE 11 19 6 10 1011.4 - 0.0
29/12:30pm 31.9 30.2 13.6 32 11.1 NE 15 28 8 15 1011.8 - 0.0
29/12:00pm 31.8 30.1 13.5 32 11.1 NNE 15 24 8 13 1012.3 1011.4 0.0
29/11:30am 31.6 30.3 14.7 36 10.4 ENE 15 24 8 13 1013.0 - 0.0
29/11:00am 30.2 28.6 15.1 40 9.3 NNE 17 28 9 15 1013.3 - 0.0
29/10:30am 29.3 28.2 14.3 40 9.1 NE 13 24 7 13 1013.6 - 0.0
29/10:00am 28.8 28.3 16.0 45 8.0 NE 13 22 7 12 1013.9 - 0.0
29/09:30am 27.9 27.1 16.2 49 7.3 ENE 15 26 8 14 1014.2 - 0.0
29/09:00am 26.8 27.9 17.0 55 6.1 E 7 15 4 8 1014.5 1013.6 0.0
29/08:30am 25.4 26.7 17.1 60 5.2 E 6 11 3 6 1014.5 - 0.0
29/08:00am 23.8 25.2 17.8 69 3.8 S 7 13 4 7 1014.3 - 0.0
29/07:30am 22.6 22.6 17.3 72 3.3 S 13 17 7 9 1014.2 - 0.0
29/07:00am 20.7 21.2 17.5 82 2.0 SSE 11 15 6 8 1014.0 - 0.0
29/06:30am 18.5 19.1 16.7 89 1.1 SSE 9 13 5 7 1013.7 - 0.0
29/06:00am 18.0 18.4 16.3 90 1.0 S 9 11 5 6 1013.4 1012.6 0.0
29/05:30am 18.3 18.8 16.5 89 1.1 SSE 9 13 5 7 1013.1 - 0.0
29/05:00am 18.0 18.0 16.3 90 1.0 SSE 11 13 6 7 1012.9 - 0.0
29/04:30am 18.2 18.3 16.5 90 1.0 SSE 11 15 6 8 1012.6 - 0.0
29/04:00am 18.3 18.9 16.8 91 0.9 S 9 11 5 6 1012.3 - 0.0
29/03:30am 18.1 20.5 16.9 93 0.7 CALM 0 0 0 0 1012.2 - 0.0
29/03:00am 17.3 18.0 16.0 92 0.8 SSE 7 9 4 5 1012.1 1011.2 0.0
29/02:30am 17.3 18.1 15.8 91 0.9 SE 6 7 3 4 1012.4 - 0.0
29/02:00am 17.4 18.1 15.7 90 1.0 SSW 6 9 3 5 1012.3 - 0.0
29/01:30am 17.4 18.8 15.4 88 1.2 WSW 2 7 1 4 1012.3 - 0.0
29/01:00am 18.5 20.7 16.5 88 1.2 CALM 0 0 0 0 1012.4 - 0.0
29/12:30am 20.1 21.9 18.4 90 1.1 N 6 11 3 6 1012.4 - 0.0
29/12:00am 19.1 21.6 17.2 89 1.2 CALM 0 6 0 3 1012.7 1011.8 0.0
 
Date/Time
EST
Temp
°C
App
Temp
°C
Dew
Point
Rel
Hum
%
Delta-T
°C
Wind Press
QNH
hPa
Press
MSL
hPa
Rain
since 9 am
mm
Dir
 
Spd
km/h
Gust
km/h
Spd
kts
Gust
kts
28/11:30pm 19.3 21.5 16.5 84 1.7 CALM 0 4 0 2 1013.1 - 0.0
28/11:00pm 21.0 22.7 18.0 83 1.9 N 6 13 3 7 1013.1 - 0.0
28/10:30pm 21.3 23.8 18.1 82 2.0 NNE 2 9 1 5 1013.3 - 0.0
28/10:00pm 21.3 22.9 17.9 81 2.1 NW 6 9 3 5 1013.2 - 0.0
28/09:30pm 21.8 22.5 18.0 79 2.4 N 11 17 6 9 1013.1 - 0.0
28/09:00pm 21.8 22.7 17.6 77 2.6 N 9 15 5 8 1013.2 1012.3 0.0
28/08:30pm 22.5 23.1 17.8 75 2.9 N 11 15 6 8 1013.4 - 0.0
28/08:00pm 23.2 23.3 17.4 70 3.6 NNE 13 20 7 11 1013.3 - 0.0
28/07:30pm 24.1 23.6 16.9 64 4.5 NE 15 24 8 13 1012.8 - 0.0
28/07:00pm 24.9 24.0 15.8 57 5.6 NE 15 22 8 12 1012.4 - 0.0
28/06:30pm 26.1 25.3 15.2 51 6.6 NE 13 20 7 11 1012.0 - 0.0
28/06:00pm 27.6 26.0 13.9 43 8.2 NE 15 22 8 12 1011.7 1010.9 0.0

Other Formats:

Comma delimited format used in spreadsheet applications
http://www.bom.gov.au/fwo/IDQ60801/IDQ60801.94183.axf

JavaScript Object Notation format (JSON) in row-major order
http://www.bom.gov.au/fwo/IDQ60801/IDQ60801.94183.json